RGMDM weather

Aviosuperficie Oasi dei Re
Marina di Modica (RG), Sicily, Italy

Public forecast

Using degrees Celsius for public forecast. Weather courtesy of forecast.io.

Closest aviation weather report (METAR) to Aviosuperficie Oasi dei Re

Closest report is Comiso Airport, 18.2 nm (33.8 km) NNW. Retrieved 2019/12/05 15:50 UTC (1 hour ago):

LICB 051550Z 02006KT 9999 SCT035 16/13 Q1020

Closest aviation forecast (TAF) to Aviosuperficie Oasi dei Re

Closest forecast is Sigonella Navy Air Base, 41.5 nm (76.8 km) N. Retrieved 2019/12/05 12:27 UTC (4 hours ago):

TAF LICZ 051100Z 0512/0612 24012KT 8000 SCT020 BKN060 TEMPO 0514/0518 14008KT 7000 RA TEMPO 0524/0603 3000 BR SCT010 BECMG 0608/0610 28013KT 9999 SCT030